Time;durP1;ratioP1;P1;durP2;ratioP2;P2;SDS_P1;SDS_P2;PMS_P1;PMS_P2;Temp;Humidity;BMP_temperature;BMP_pressure;BME280_temperature;BME280_humidity;BME280_pressure;Samples;Min_cycle;Max_cycle;Signal;HPM_P1;HPM_P2
2021/03/25 00:02:01;;;;;;;16.57;11.43;;;;;;;6.05;82.44;152916.25;5115342;28;20873;-82
2021/03/25 00:04:36;;;;;;;14.97;12.60;;;;;;;6.03;81.99;152911.09;5111815;28;20457;-82
2021/03/25 00:07:12;;;;;;;17.73;11.80;;;;;;;6.04;83.98;152912.34;5097457;28;20807;-82
2021/03/25 00:09:47;;;;;;;16.60;12.07;;;;;;;5.99;82.76;152900.75;5112410;28;20549;-82
2021/03/25 00:12:23;;;;;;;16.17;12.07;;;;;;;5.93;82.63;152885.25;5112100;28;20866;-82
2021/03/25 00:14:58;;;;;;;16.47;11.80;;;;;;;5.88;82.54;152871.06;5106559;28;20478;-82
2021/03/25 00:17:33;;;;;;;19.63;13.43;;;;;;;5.80;83.01;152851.66;5100150;28;20427;-82
2021/03/25 00:20:12;;;;;;;19.13;13.53;;;;;;;5.78;83.63;152846.53;5122414;27;20450;-82
2021/03/25 00:22:48;;;;;;;17.10;12.07;;;;;;;5.75;83.11;152837.47;5115852;28;20447;-82
2021/03/25 00:25:26;;;;;;;19.70;14.10;;;;;;;5.67;84.46;152818.16;5099534;28;20445;-82
2021/03/25 00:28:02;;;;;;;17.20;13.60;;;;;;;5.66;84.33;152815.59;5132443;27;20471;-82
2021/03/25 00:30:37;;;;;;;18.03;12.93;;;;;;;5.68;85.24;152819.44;5114227;28;20971;-82
2021/03/25 00:33:15;;;;;;;17.30;13.60;;;;;;;5.66;84.49;152814.28;5109498;28;20434;-82
2021/03/25 00:35:50;;;;;;;21.60;13.17;;;;;;;5.64;84.03;152810.41;5132287;27;20814;-82
2021/03/25 00:38:26;;;;;;;19.20;13.13;;;;;;;5.65;84.63;152813.00;5115424;28;20457;-82
2021/03/25 00:41:02;;;;;;;21.17;14.00;;;;;;;5.61;83.98;152801.41;5115069;28;20437;-82
2021/03/25 00:43:37;;;;;;;20.30;13.63;;;;;;;5.57;84.80;152791.06;5111154;28;20450;-82
2021/03/25 00:46:12;;;;;;;17.60;14.23;;;;;;;5.54;84.79;152785.91;5079341;28;20469;-82
2021/03/25 00:48:48;;;;;;;18.50;13.07;;;;;;;5.58;85.25;152794.97;5132402;27;20449;-82
2021/03/25 00:51:23;;;;;;;17.27;12.37;;;;;;;5.52;85.34;152780.78;5091252;28;20454;-82
2021/03/25 00:53:59;;;;;;;18.30;12.33;;;;;;;5.52;84.49;152779.47;5095358;28;20447;-82
2021/03/25 00:56:37;;;;;;;17.17;12.30;;;;;;;5.47;85.16;152766.59;5095865;28;20545;-82
2021/03/25 00:59:12;;;;;;;18.67;12.80;;;;;;;5.40;85.55;152748.56;5078697;28;20451;-82
2021/03/25 01:01:47;;;;;;;15.50;12.60;;;;;;;5.39;85.53;152745.94;5081945;28;20442;-82
2021/03/25 01:04:22;;;;;;;18.03;12.23;;;;;;;5.44;87.18;152758.84;5094144;28;20449;-82
2021/03/25 01:06:58;;;;;;;21.80;13.73;;;;;;;5.45;84.57;152762.69;5110974;28;20514;-82
2021/03/25 01:09:34;;;;;;;15.80;11.80;;;;;;;5.51;85.56;152776.88;5093912;28;20449;-82
2021/03/25 01:12:10;;;;;;;13.90;11.43;;;;;;;5.52;84.53;152779.47;5077949;28;20433;-82
2021/03/25 01:14:45;;;;;;;14.43;12.10;;;;;;;5.50;86.26;152774.31;5078312;28;20537;-82
2021/03/25 01:17:21;;;;;;;17.63;12.30;;;;;;;5.48;83.97;152770.44;5094607;28;20432;-82
2021/03/25 01:19:57;;;;;;;14.83;12.50;;;;;;;5.49;84.48;152771.72;5078523;28;20521;-82
2021/03/25 01:22:32;;;;;;;15.30;11.90;;;;;;;5.51;85.27;152776.88;5095763;28;20952;-82
2021/03/25 01:25:10;;;;;;;15.77;12.03;;;;;;;5.51;85.31;152776.88;5088538;28;20443;-82
2021/03/25 01:27:45;;;;;;;17.67;12.80;;;;;;;5.44;84.14;152758.84;5094617;28;20433;-82
2021/03/25 01:30:24;;;;;;;17.40;11.27;;;;;;;5.46;84.35;152764.00;5089083;28;20521;-82
2021/03/25 01:33:00;;;;;;;15.97;10.93;;;;;;;5.44;83.60;152758.84;5098478;28;20437;-82
2021/03/25 01:35:37;;;;;;;14.43;11.23;;;;;;;5.42;85.04;152753.69;5098433;28;20575;-82
2021/03/25 01:38:14;;;;;;;16.90;11.50;;;;;;;5.37;84.36;152740.81;5098406;28;20437;-82
2021/03/25 01:40:55;;;;;;;21.33;11.27;;;;;;;5.31;85.17;152725.31;5114269;27;20442;-82
2021/03/25 01:43:32;;;;;;;18.63;10.77;;;;;;;5.23;86.14;152704.69;5077161;28;20496;-82
2021/03/25 01:46:16;;;;;;;16.13;11.70;;;;;;;5.21;85.16;152700.84;5077614;28;20473;-82
2021/03/25 01:48:54;;;;;;;17.90;12.17;;;;;;;5.15;85.25;152684.06;5093601;28;20451;-82
2021/03/25 01:51:53;;;;;;;16.93;12.33;;;;;;;5.14;85.81;152681.47;5094620;28;20418;-82
2021/03/25 01:54:54;;;;;;;19.30;14.27;;;;;;;5.12;85.97;152677.63;5085096;28;20954;-82
2021/03/25 01:57:48;;;;;;;13.90;11.13;;;;;;;5.07;86.87;152663.44;5114999;28;20437;-82
2021/03/25 02:00:27;;;;;;;14.80;11.40;;;;;;;5.06;86.41;152660.84;5098044;28;20810;-82
2021/03/25 02:03:23;;;;;;;14.93;11.53;;;;;;;5.06;85.47;152662.16;5113623;28;20449;-82
2021/03/25 02:06:07;;;;;;;13.80;11.60;;;;;;;5.10;88.21;152672.47;5113186;28;20435;-82
2021/03/25 02:08:50;;;;;;;16.17;11.30;;;;;;;5.12;86.91;152676.31;5097478;28;20850;-82
2021/03/25 02:11:28;;;;;;;14.00;10.23;;;;;;;5.17;86.44;152689.22;5097845;28;20433;-82
2021/03/25 02:14:11;;;;;;;14.87;10.13;;;;;;;5.18;86.67;152693.09;5094192;28;20440;-82
2021/03/25 02:16:54;;;;;;;15.50;11.20;;;;;;;5.19;86.47;152695.66;5091301;28;20472;-82
2021/03/25 02:20:21;;;;;;;13.50;10.27;;;;;;;5.22;86.58;152702.09;5097676;28;20442;-82
2021/03/25 02:23:27;;;;;;;16.50;10.23;;;;;;;5.22;85.96;152703.41;5093694;28;20937;-82
2021/03/25 02:26:05;;;;;;;12.00;9.50;;;;;;;5.18;86.21;152691.81;5092827;28;20438;-82
2021/03/25 02:29:00;;;;;;;15.13;11.10;;;;;;;5.13;85.17;152678.94;5109747;28;20474;-82
2021/03/25 02:31:39;;;;;;;11.13;8.43;;;;;;;5.08;87.36;152667.34;5077055;28;20438;-82
2021/03/25 02:34:18;;;;;;;13.30;10.40;;;;;;;5.04;86.64;152655.69;5093992;28;20458;-82
2021/03/25 02:36:56;;;;;;;12.93;9.77;;;;;;;5.01;86.57;152647.97;5083538;28;20478;-82
2021/03/25 02:39:37;;;;;;;14.90;10.17;;;;;;;5.01;87.76;152647.97;5109807;28;20438;-82
2021/03/25 02:42:15;;;;;;;13.17;9.20;;;;;;;5.01;87.28;152647.97;5092724;28;20936;-82
2021/03/25 02:44:54;;;;;;;14.27;10.53;;;;;;;5.01;88.72;152647.97;5090954;28;20568;-82
2021/03/25 02:47:32;;;;;;;14.90;10.37;;;;;;;5.03;87.74;152654.41;5076881;28;20430;-82
2021/03/25 02:50:12;;;;;;;10.57;9.00;;;;;;;5.04;87.61;152655.69;5076656;28;20447;-81
2021/03/25 02:52:53;;;;;;;11.07;9.30;;;;;;;5.02;87.24;152650.56;5092394;28;20438;-82
2021/03/25 02:55:28;;;;;;;13.00;9.73;;;;;;;5.01;86.84;152649.25;5093362;28;20562;-82
2021/03/25 02:58:13;;;;;;;12.17;9.67;;;;;;;4.99;87.41;152644.13;5092536;28;20431;-82
2021/03/25 03:00:50;;;;;;;10.67;9.40;;;;;;;4.99;88.10;152642.81;5093634;28;20952;-82
2021/03/25 03:03:30;;;;;;;11.57;8.77;;;;;;;4.93;87.58;152629.94;5092148;28;20425;-82
2021/03/25 03:06:29;;;;;;;12.03;9.47;;;;;;;4.89;88.16;152619.66;5103185;28;20441;-81
2021/03/25 03:09:16;;;;;;;10.50;9.20;;;;;;;4.82;87.12;152601.56;5097274;28;20473;-82
2021/03/25 03:11:54;;;;;;;12.00;10.27;;;;;;;4.78;87.56;152591.28;5095074;28;20446;-82
2021/03/25 03:14:31;;;;;;;16.23;10.97;;;;;;;4.78;87.94;152591.28;5095141;28;20440;-82
2021/03/25 03:17:12;;;;;;;12.07;9.90;;;;;;;4.74;87.74;152579.66;5113789;28;20781;-82
2021/03/25 03:19:58;;;;;;;11.43;9.47;;;;;;;4.72;88.33;152575.81;5096992;28;20444;-82
2021/03/25 03:22:34;;;;;;;12.70;10.03;;;;;;;4.67;88.60;152562.94;5096885;28;20552;-82
2021/03/25 03:25:21;;;;;;;15.90;10.30;;;;;;;4.65;88.04;152557.78;5095604;28;20441;-82
2021/03/25 03:28:00;;;;;;;13.17;10.03;;;;;;;4.64;89.33;152555.19;5076734;28;20445;-82
2021/03/25 03:30:38;;;;;;;14.53;11.53;;;;;;;4.64;87.67;152555.19;5105870;28;20443;-82
2021/03/25 03:33:34;;;;;;;13.17;10.70;;;;;;;4.59;88.24;152542.31;5096855;28;20437;-82
2021/03/25 03:36:13;;;;;;;18.30;10.83;;;;;;;4.55;88.52;152532.03;5076527;28;20559;-81
2021/03/25 03:38:50;;;;;;;14.23;10.27;;;;;;;4.52;88.88;152524.28;5076666;28;20529;-82
2021/03/25 03:41:33;;;;;;;12.13;9.83;;;;;;;4.44;88.85;152503.69;5094265;28;20497;-82
2021/03/25 03:44:17;;;;;;;11.60;10.13;;;;;;;4.40;90.23;152492.06;5085700;28;20481;-82
2021/03/25 03:46:53;;;;;;;12.37;10.30;;;;;;;4.38;90.63;152488.22;5091928;28;20437;-82
2021/03/25 03:49:34;;;;;;;13.93;10.40;;;;;;;4.38;90.53;152488.22;5100299;28;20460;-82
2021/03/25 03:52:15;;;;;;;11.73;9.73;;;;;;;4.32;89.19;152472.75;5105501;28;20853;-81
2021/03/25 03:54:55;;;;;;;12.43;10.40;;;;;;;4.32;90.01;152472.75;5096797;28;20539;-82
2021/03/25 03:57:35;;;;;;;14.27;11.03;;;;;;;4.28;89.73;152462.47;5092103;28;20838;-82
2021/03/25 04:00:21;;;;;;;12.00;9.67;;;;;;;4.23;90.07;152450.88;5089894;28;20795;-82
2021/03/25 04:03:08;;;;;;;11.17;9.80;;;;;;;4.20;90.08;152443.16;5087446;28;20542;-82
2021/03/25 04:06:18;;;;;;;16.30;10.18;;;;;;;4.16;90.43;152432.81;5085192;28;20475;-82
2021/03/25 04:09:08;;;;;;;15.97;11.10;;;;;;;4.12;89.64;152421.25;5079537;28;20201;-82
2021/03/25 04:11:54;;;;;;;14.30;11.33;;;;;;;4.07;89.38;152409.66;5095640;28;20446;-82
2021/03/25 04:14:36;;;;;;;14.40;10.27;;;;;;;4.06;90.95;152407.06;5079569;28;20832;-82
2021/03/25 04:17:22;;;;;;;13.60;9.90;;;;;;;4.02;91.89;152396.78;5079722;28;20438;-82
2021/03/25 04:20:05;;;;;;;13.37;10.83;;;;;;;3.99;90.64;152387.75;5079274;28;20469;-82
2021/03/25 04:22:54;;;;;;;13.30;9.97;;;;;;;4.00;90.98;152390.31;5079817;28;20426;-82
2021/03/25 04:25:32;;;;;;;13.60;10.10;;;;;;;4.01;91.01;152392.91;5112310;28;20433;-82
2021/03/25 04:28:10;;;;;;;11.90;8.93;;;;;;;4.01;90.97;152392.91;5096391;28;20532;-81
2021/03/25 04:30:48;;;;;;;13.50;10.43;;;;;;;4.04;90.60;152400.63;5096747;28;20842;-81
2021/03/25 04:33:25;;;;;;;11.50;9.70;;;;;;;4.03;90.69;152398.03;5083673;28;20951;-82
2021/03/25 04:36:00;;;;;;;13.17;9.67;;;;;;;4.01;90.96;152394.19;5131721;27;20515;-82
2021/03/25 04:38:38;;;;;;;11.20;9.13;;;;;;;4.00;91.80;152390.31;5082296;28;20441;-82
2021/03/25 04:41:14;;;;;;;12.83;10.30;;;;;;;3.96;92.53;152381.31;5079133;28;20882;-82
2021/03/25 04:43:57;;;;;;;12.27;9.00;;;;;;;3.92;91.72;152369.75;5091974;28;20944;-83
2021/03/25 04:46:49;;;;;;;11.57;8.83;;;;;;;3.97;91.17;152382.63;5110730;28;20927;-82
2021/03/25 04:49:30;;;;;;;12.50;9.10;;;;;;;3.97;92.04;152382.63;5110972;28;20911;-82
2021/03/25 04:52:09;;;;;;;13.80;9.80;;;;;;;3.90;91.09;152365.84;5132456;27;20440;-82
2021/03/25 04:54:44;;;;;;;11.03;9.40;;;;;;;3.91;91.37;152368.47;5124862;27;20950;-82
2021/03/25 04:57:25;;;;;;;12.83;10.20;;;;;;;3.89;91.28;152362.00;5100258;28;20536;-82
2021/03/25 05:00:07;;;;;;;11.10;8.90;;;;;;;3.86;91.19;152354.28;5099164;28;20527;-82
2021/03/25 05:02:42;;;;;;;13.10;10.37;;;;;;;3.90;91.75;152365.84;5099490;28;20450;-82
2021/03/25 05:05:19;;;;;;;10.50;8.87;;;;;;;3.90;90.94;152365.84;5098791;28;20428;-82
2021/03/25 05:07:58;;;;;;;10.00;8.97;;;;;;;3.93;91.71;152372.28;5109179;28;20436;-82
2021/03/25 05:10:41;;;;;;;10.63;8.17;;;;;;;3.94;90.87;152376.19;5113106;28;20458;-82
2021/03/25 05:13:27;;;;;;;11.67;8.50;;;;;;;3.94;91.07;152376.19;5131464;27;20982;-82
2021/03/25 05:16:25;;;;;;;9.73;8.47;;;;;;;3.93;91.14;152373.59;5096693;28;20571;-82
2021/03/25 05:19:08;;;;;;;10.80;8.20;;;;;;;3.86;90.46;152355.56;5113103;28;20444;-82
2021/03/25 05:21:48;;;;;;;10.60;8.70;;;;;;;3.85;90.79;152351.69;5098748;28;20444;-82
2021/03/25 05:24:26;;;;;;;11.10;8.87;;;;;;;3.85;91.81;152351.69;5113997;28;20436;-82
2021/03/25 05:27:05;;;;;;;13.10;9.10;;;;;;;3.85;91.41;152351.69;5100578;28;20452;-82
2021/03/25 05:29:41;;;;;;;10.13;8.83;;;;;;;3.84;92.26;152349.16;5085303;28;20951;-82
2021/03/25 05:32:20;;;;;;;15.43;8.43;;;;;;;3.88;90.55;152359.44;5078197;28;20437;-82
2021/03/25 05:34:58;;;;;;;10.90;9.10;;;;;;;3.91;90.77;152367.16;5097166;28;20456;-82
2021/03/25 05:37:33;;;;;;;11.37;8.40;;;;;;;3.89;90.10;152363.25;5114600;28;20456;-82
2021/03/25 05:40:14;;;;;;;10.00;8.37;;;;;;;3.94;91.18;152374.88;5114056;28;20942;-81
2021/03/25 05:42:58;;;;;;;10.60;8.63;;;;;;;3.93;91.96;152373.59;5125226;27;20448;-82
2021/03/25 05:45:52;;;;;;;8.40;7.60;;;;;;;3.98;91.27;152385.16;5092962;28;20461;-82
2021/03/25 05:48:43;;;;;;;10.47;8.40;;;;;;;4.01;90.90;152392.91;5081982;28;20433;-82
2021/03/25 05:51:25;;;;;;;10.20;8.50;;;;;;;4.04;90.35;152400.63;5097974;28;20421;-82
2021/03/25 05:54:11;;;;;;;11.73;8.30;;;;;;;4.08;89.95;152410.91;5097937;28;20441;-83
2021/03/25 05:57:01;;;;;;;11.23;8.70;;;;;;;4.07;89.21;152408.38;5113855;28;20529;-82
2021/03/25 05:59:43;;;;;;;12.03;9.67;;;;;;;4.04;91.10;152400.63;5113407;28;20437;-82
2021/03/25 06:02:23;;;;;;;13.00;9.50;;;;;;;4.07;89.06;152409.66;5096796;28;20448;-81
2021/03/25 06:04:59;;;;;;;11.50;9.80;;;;;;;4.09;91.12;152413.50;5110543;28;20972;-82
2021/03/25 06:08:03;;;;;;;10.00;8.87;;;;;;;4.11;90.48;152419.94;5077610;28;20915;-82
2021/03/25 06:10:48;;;;;;;10.37;8.90;;;;;;;4.15;89.96;152428.97;5092870;28;20949;-82
2021/03/25 06:13:35;;;;;;;12.40;9.40;;;;;;;4.16;90.88;152432.81;5111953;28;20942;-82
2021/03/25 06:16:40;;;;;;;11.43;8.83;;;;;;;4.28;89.39;152463.75;5130535;27;20481;-81
2021/03/25 06:19:50;;;;;;;11.70;8.70;;;;;;;4.37;90.82;152484.38;5113042;28;20841;-82
2021/03/25 06:22:28;;;;;;;12.07;9.77;;;;;;;4.58;88.51;152539.72;5094274;28;20544;-82
2021/03/25 06:25:24;;;;;;;13.83;9.50;;;;;;;5.02;87.82;152650.56;5093363;28;20469;-82
2021/03/25 06:28:19;;;;;;;14.27;9.50;;;;;;;5.32;85.71;152727.91;5092604;28;20441;-83
2021/03/25 06:31:19;;;;;;;12.33;9.73;;;;;;;5.60;85.53;152800.09;5076699;28;20834;-82
2021/03/25 06:34:00;;;;;;;10.20;8.93;;;;;;;5.80;84.17;152851.66;5093172;28;20482;-82
2021/03/25 06:36:44;;;;;;;13.77;9.33;;;;;;;6.01;83.51;152905.88;5092520;28;20865;-83
2021/03/25 06:39:26;;;;;;;13.80;9.30;;;;;;;6.21;81.17;152956.22;5076945;28;20464;-83
2021/03/25 06:42:14;;;;;;;13.67;9.60;;;;;;;6.33;80.97;152985.91;5076814;28;20533;-82
2021/03/25 06:44:55;;;;;;;9.07;8.20;;;;;;;6.46;79.75;153019.47;5110046;28;20471;-83
2021/03/25 06:47:41;;;;;;;10.37;9.17;;;;;;;6.65;79.68;153068.47;5110477;28;20446;-83
2021/03/25 06:50:19;;;;;;;13.43;9.87;;;;;;;6.84;78.24;153116.22;5112573;28;20426;-83
2021/03/25 06:52:57;;;;;;;10.63;8.90;;;;;;;6.99;76.49;153156.25;5097067;28;20430;-83
2021/03/25 06:55:33;;;;;;;10.57;9.47;;;;;;;7.10;77.34;153183.34;5096912;28;20471;-83
2021/03/25 06:58:12;;;;;;;11.67;9.47;;;;;;;7.12;76.61;153189.81;5109277;28;20443;-83
2021/03/25 07:00:54;;;;;;;13.60;9.57;;;;;;;7.30;76.53;153236.34;5130066;28;20435;-83
2021/03/25 07:03:30;;;;;;;13.70;10.27;;;;;;;7.47;74.29;153277.63;5092509;28;20539;-83
2021/03/25 07:06:06;;;;;;;11.00;8.67;;;;;;;7.62;74.86;153317.69;5079562;28;20950;-83
2021/03/25 07:08:41;;;;;;;12.43;9.67;;;;;;;7.81;75.79;153366.75;5087746;28;20448;-83
2021/03/25 07:11:18;;;;;;;13.70;9.27;;;;;;;7.98;72.71;153409.41;5097706;28;20803;-83
2021/03/25 07:13:59;;;;;;;10.10;8.93;;;;;;;8.24;72.58;153476.59;5111304;28;20801;-83
2021/03/25 07:16:38;;;;;;;11.40;8.00;;;;;;;8.55;71.46;153556.75;5096267;28;20487;-83
2021/03/25 07:19:15;;;;;;;9.97;8.00;;;;;;;8.79;69.55;153616.25;5095668;28;20551;-83
2021/03/25 07:21:51;;;;;;;12.90;7.80;;;;;;;8.94;69.29;153655.03;5112760;28;20848;-83
2021/03/25 07:24:28;;;;;;;9.00;7.40;;;;;;;9.14;66.42;153708.03;5113262;28;20523;-82
2021/03/25 07:27:09;;;;;;;9.53;7.90;;;;;;;9.36;65.95;153763.66;5103461;28;20546;-84
2021/03/25 07:29:49;;;;;;;9.23;7.60;;;;;;;9.43;65.85;153781.75;5093140;28;20433;-83
2021/03/25 07:32:34;;;;;;;8.80;7.73;;;;;;;9.66;66.65;153840.00;5083011;28;20465;-83
2021/03/25 07:35:19;;;;;;;10.13;8.23;;;;;;;9.73;65.87;153859.41;5111085;28;20443;-83
2021/03/25 07:37:55;;;;;;;10.20;8.37;;;;;;;9.98;63.67;153921.53;5112352;28;20800;-83
2021/03/25 07:40:34;;;;;;;10.60;8.53;;;;;;;9.88;66.46;153896.91;5111921;28;20426;-84
2021/03/25 07:43:17;;;;;;;8.83;7.17;;;;;;;10.23;63.01;153987.56;5079819;28;20923;-84
2021/03/25 07:46:05;;;;;;;8.60;7.03;;;;;;;10.48;61.74;154049.72;5079773;28;21154;-84
2021/03/25 07:48:41;;;;;;;13.17;9.20;;;;;;;10.74;62.57;154118.34;5096250;28;20425;-84
2021/03/25 07:51:16;;;;;;;9.03;8.13;;;;;;;10.86;63.10;154148.09;5095977;28;20470;-84
2021/03/25 07:54:12;;;;;;;10.77;9.73;;;;;;;11.01;61.23;154188.25;5092265;28;20449;-84
2021/03/25 07:57:06;;;;;;;9.50;8.50;;;;;;;11.18;60.23;154229.72;5096455;28;20578;-84
2021/03/25 07:59:44;;;;;;;9.60;8.60;;;;;;;11.20;60.78;154234.94;5116069;28;20447;-84
2021/03/25 08:02:31;;;;;;;10.37;8.60;;;;;;;11.15;61.02;154221.94;5115333;28;20455;-84
2021/03/25 08:05:15;;;;;;;11.60;9.30;;;;;;;11.44;58.69;154297.06;5112730;28;20444;-84
2021/03/25 08:07:52;;;;;;;10.80;8.00;;;;;;;11.50;58.52;154312.63;5079677;28;20851;-84
2021/03/25 08:10:36;;;;;;;12.97;9.73;;;;;;;11.65;59.07;154351.50;5095582;28;20530;-84
2021/03/25 08:13:16;;;;;;;11.00;8.40;;;;;;;11.82;58.85;154395.63;5097062;28;20455;-84
2021/03/25 08:15:56;;;;;;;9.80;8.80;;;;;;;12.09;58.95;154464.31;5105778;28;20479;-85
2021/03/25 08:18:51;;;;;;;10.73;8.53;;;;;;;12.14;58.95;154477.28;5105131;28;20530;-85
2021/03/25 08:21:39;;;;;;;9.57;8.57;;;;;;;12.29;57.77;154514.84;5094918;28;20546;-85
2021/03/25 08:24:41;;;;;;;13.27;9.60;;;;;;;12.49;56.96;154566.75;5082202;28;20447;-85
2021/03/25 08:27:38;;;;;;;10.77;7.93;;;;;;;12.71;56.24;154623.78;5088844;28;20452;-84
2021/03/25 08:30:25;;;;;;;9.60;7.87;;;;;;;12.63;54.93;154604.34;5111772;28;20470;-84
2021/03/25 08:33:11;;;;;;;9.50;7.70;;;;;;;12.74;58.15;154631.56;5079126;28;20439;-85
2021/03/25 08:35:50;;;;;;;10.00;8.33;;;;;;;12.87;56.50;154664.03;5090363;28;20447;-85
2021/03/25 08:38:43;;;;;;;10.93;9.07;;;;;;;13.04;54.81;154708.13;5090436;28;20483;-85
2021/03/25 08:41:21;;;;;;;8.47;7.67;;;;;;;13.16;56.81;154740.59;5103960;28;20448;-85
2021/03/25 08:44:02;;;;;;;10.03;8.40;;;;;;;13.20;56.50;154749.69;5098395;28;20523;-85
2021/03/25 08:46:43;;;;;;;11.77;8.57;;;;;;;13.18;56.71;154745.81;5106607;27;20475;-85
2021/03/25 08:49:25;;;;;;;9.47;8.43;;;;;;;13.38;54.98;154797.69;5118363;27;20436;-85
2021/03/25 08:52:06;;;;;;;9.13;8.20;;;;;;;13.52;55.01;154831.44;5105611;28;20452;-85
2021/03/25 08:54:45;;;;;;;11.53;8.50;;;;;;;13.76;55.04;154893.75;5094544;28;20447;-85
2021/03/25 08:57:23;;;;;;;10.60;7.97;;;;;;;13.91;53.85;154933.97;5115409;27;20946;-85
2021/03/25 09:00:04;;;;;;;8.30;7.50;;;;;;;13.96;55.15;154945.66;5110698;28;20938;-84
2021/03/25 09:02:52;;;;;;;9.70;8.50;;;;;;;13.80;58.78;154905.41;5114958;28;20445;-84
2021/03/25 09:05:34;;;;;;;8.83;7.30;;;;;;;13.90;54.05;154930.06;5098403;28;20799;-85
2021/03/25 09:08:20;;;;;;;9.80;8.33;;;;;;;14.03;54.33;154965.13;5110418;28;20422;-84
2021/03/25 09:10:57;;;;;;;10.40;9.07;;;;;;;14.11;53.14;154984.59;5107938;27;20939;-84
2021/03/25 09:13:34;;;;;;;9.50;8.50;;;;;;;14.12;53.45;154985.88;5098832;28;20496;-84
2021/03/25 09:16:14;;;;;;;8.57;7.23;;;;;;;14.02;59.19;154962.56;5110485;28;20443;-84
2021/03/25 09:18:53;;;;;;;11.83;9.20;;;;;;;13.87;55.88;154922.31;5098526;28;20485;-84
2021/03/25 09:21:31;;;;;;;10.47;9.10;;;;;;;14.10;53.54;154982.03;5114661;28;20444;-85
2021/03/25 09:24:09;;;;;;;9.63;8.57;;;;;;;14.24;53.06;155018.38;5098392;28;20442;-84
2021/03/25 09:27:01;;;;;;;8.60;7.73;;;;;;;14.13;54.01;154989.81;5114236;28;20469;-85
2021/03/25 09:30:09;;;;;;;8.87;7.97;;;;;;;14.08;57.85;154975.53;5115685;27;20440;-85
2021/03/25 09:32:45;;;;;;;11.90;7.67;;;;;;;14.12;53.58;154987.19;5112502;28;20855;-85
2021/03/25 09:35:45;;;;;;;12.63;8.10;;;;;;;14.07;57.08;154974.22;5110529;28;20466;-85
2021/03/25 09:38:31;;;;;;;8.37;7.00;;;;;;;14.11;55.81;154984.59;5077715;28;20469;-85
2021/03/25 09:41:07;;;;;;;10.13;8.33;;;;;;;14.15;55.33;154995.00;5086144;28;20507;-85
2021/03/25 09:43:44;;;;;;;12.80;7.70;;;;;;;14.17;54.81;155000.19;5110349;28;20425;-85
2021/03/25 09:46:29;;;;;;;8.97;8.07;;;;;;;14.16;57.42;154996.31;5110291;28;20469;-85
2021/03/25 09:49:31;;;;;;;8.97;8.00;;;;;;;14.20;55.57;155007.97;5110799;28;20426;-85
2021/03/25 09:52:19;;;;;;;11.67;7.10;;;;;;;14.31;53.95;155036.59;5088853;28;20449;-84
2021/03/25 09:55:14;;;;;;;9.67;7.87;;;;;;;14.46;55.61;155074.25;5093300;28;20434;-85
2021/03/25 09:57:49;;;;;;;7.60;6.80;;;;;;;14.37;53.47;155050.88;5107509;27;20847;-85
2021/03/25 10:00:51;;;;;;;9.43;7.57;;;;;;;14.42;53.25;155065.19;5106106;28;20440;-85
2021/03/25 10:04:07;;;;;;;8.30;7.43;;;;;;;14.58;54.36;155105.44;5097720;28;20448;-85
2021/03/25 10:07:00;;;;;;;9.50;8.47;;;;;;;14.57;52.28;155102.81;5128798;27;20479;-85
2021/03/25 10:10:13;;;;;;;11.00;7.80;;;;;;;14.68;51.86;155130.09;5102789;28;20448;-85
2021/03/25 10:13:14;;;;;;;10.53;8.93;;;;;;;14.39;52.54;155057.38;5097606;28;20860;-85
2021/03/25 10:15:55;;;;;;;14.93;10.40;;;;;;;13.96;54.88;154946.94;5097131;28;20436;-85
2021/03/25 10:18:50;;;;;;;12.47;9.67;;;;;;;13.66;52.83;154869.06;5090461;28;20436;-85
2021/03/25 10:22:03;;;;;;;10.60;8.73;;;;;;;13.75;54.14;154891.13;5094263;28;20804;-84
2021/03/25 10:24:42;;;;;;;12.57;9.60;;;;;;;13.79;54.08;154902.78;5106790;28;20520;-85
2021/03/25 10:27:31;;;;;;;11.73;8.40;;;;;;;13.85;52.17;154918.38;5112705;28;20561;-85
2021/03/25 10:30:20;;;;;;;10.63;7.67;;;;;;;13.75;51.26;154892.44;5095201;28;20463;-85
2021/03/25 10:32:55;;;;;;;9.20;6.87;;;;;;;13.65;50.07;154866.50;5113199;27;20517;-85
2021/03/25 10:35:34;;;;;;;9.97;7.10;;;;;;;13.81;49.75;154906.72;5113034;28;20443;-85
2021/03/25 10:38:11;;;;;;;9.17;6.90;;;;;;;14.03;50.24;154965.13;5086573;28;20949;-85
2021/03/25 10:40:48;;;;;;;7.50;6.00;;;;;;;13.74;49.15;154888.56;5110158;28;20453;-84
2021/03/25 10:43:30;;;;;;;7.30;6.03;;;;;;;13.62;48.33;154857.38;5109635;28;20441;-85
2021/03/25 10:46:07;;;;;;;6.87;6.17;;;;;;;13.62;49.21;154857.38;5094769;28;21985;-84
2021/03/25 10:48:43;;;;;;;7.27;5.97;;;;;;;13.56;48.47;154843.09;5096815;28;20945;-85
2021/03/25 10:51:21;;;;;;;9.67;6.87;;;;;;;13.57;48.65;154844.41;5112943;28;20470;-85
2021/03/25 10:53:59;;;;;;;9.53;6.10;;;;;;;13.76;48.44;154893.75;5092501;28;20841;-85
2021/03/25 10:56:37;;;;;;;8.80;6.07;;;;;;;13.81;47.98;154906.72;5088403;28;20791;-85
2021/03/25 10:59:19;;;;;;;9.40;6.90;;;;;;;13.85;48.54;154917.06;5092142;28;20436;-85
2021/03/25 11:01:56;;;;;;;9.57;6.77;;;;;;;13.69;47.44;154875.53;5109172;28;20544;-85
2021/03/25 11:04:32;;;;;;;8.80;6.07;;;;;;;13.75;47.83;154891.13;5076655;28;20441;-85
2021/03/25 11:07:12;;;;;;;9.80;6.33;;;;;;;13.71;48.46;154880.78;5119629;28;20460;-84
2021/03/25 11:09:53;;;;;;;7.47;5.90;;;;;;;13.63;48.02;154860.00;5091037;28;20536;-85
2021/03/25 11:12:31;;;;;;;8.90;6.90;;;;;;;13.50;47.95;154826.25;5109146;28;20901;-84
2021/03/25 11:15:21;;;;;;;9.97;6.47;;;;;;;13.62;47.16;154858.69;5100600;28;20449;-85
2021/03/25 11:17:56;;;;;;;12.00;6.67;;;;;;;13.62;46.72;154857.38;5114626;28;20444;-85
2021/03/25 11:20:31;;;;;;;9.53;6.10;;;;;;;13.75;47.35;154892.44;5100762;28;20435;-85
2021/03/25 11:23:06;;;;;;;8.80;6.13;;;;;;;13.77;47.61;154897.63;5116305;28;20439;-85
2021/03/25 11:25:42;;;;;;;8.87;6.30;;;;;;;13.75;48.20;154891.13;5115053;28;20946;-85
2021/03/25 11:28:18;;;;;;;9.93;7.77;;;;;;;14.14;48.82;154992.38;5113775;28;20475;-85
2021/03/25 11:30:56;;;;;;;11.20;7.40;;;;;;;14.49;47.67;155083.34;5107900;28;20443;-85
2021/03/25 11:33:34;;;;;;;10.50;8.03;;;;;;;14.51;47.64;155088.53;5116224;28;20429;-85
2021/03/25 11:36:11;;;;;;;7.70;6.13;;;;;;;14.52;48.14;155091.16;5095949;28;20798;-85
2021/03/25 11:38:46;;;;;;;9.70;7.17;;;;;;;14.35;47.49;155045.72;5096528;28;20437;-85
2021/03/25 11:41:33;;;;;;;8.07;6.40;;;;;;;14.39;47.70;155057.38;5115985;28;20450;-85
2021/03/25 11:44:09;;;;;;;7.90;6.10;;;;;;;14.43;48.16;155066.44;5116314;28;20481;-85
2021/03/25 11:46:45;;;;;;;10.60;6.40;;;;;;;14.36;47.95;155049.59;5114880;28;20476;-85
2021/03/25 11:49:23;;;;;;;8.73;7.07;;;;;;;14.33;46.75;155040.47;5082719;28;20489;-85
2021/03/25 11:52:00;;;;;;;6.60;5.70;;;;;;;14.18;46.94;155002.78;5097109;28;20787;-86
2021/03/25 11:54:36;;;;;;;9.63;6.80;;;;;;;14.26;48.28;155023.56;5102573;28;20916;-85
2021/03/25 11:57:24;;;;;;;9.33;6.50;;;;;;;14.46;46.98;155074.25;5100701;28;20443;-85
2021/03/25 12:00:11;;;;;;;10.77;6.73;;;;;;;14.49;46.33;155083.34;5079747;28;20470;-85
2021/03/25 12:02:48;;;;;;;5.60;4.90;;;;;;;14.56;46.01;155101.50;5108652;28;20434;-85
2021/03/25 12:05:37;;;;;;;7.20;5.60;;;;;;;14.72;45.08;155141.78;5112286;28;20435;-85
2021/03/25 12:08:33;;;;;;;17.30;7.20;;;;;;;14.38;45.51;155053.47;5126290;27;20817;-85
2021/03/25 12:11:11;;;;;;;9.20;6.10;;;;;;;14.40;46.40;155059.94;5098537;28;20529;-85
2021/03/25 12:13:46;;;;;;;6.10;5.50;;;;;;;14.69;45.55;155134.03;5132665;27;20430;-85
2021/03/25 12:16:21;;;;;;;8.83;6.33;;;;;;;14.84;45.75;155171.66;5112428;28;20848;-85
2021/03/25 12:19:00;;;;;;;6.97;5.57;;;;;;;14.51;46.75;155088.53;5100145;28;20426;-86
2021/03/25 12:21:38;;;;;;;9.13;6.53;;;;;;;14.45;45.56;155072.97;5105863;28;20922;-88
2021/03/25 12:24:13;;;;;;;11.73;6.93;;;;;;;14.37;45.28;155050.88;5107613;28;20817;-85
2021/03/25 12:26:48;;;;;;;9.40;7.00;;;;;;;14.31;46.47;155036.59;5101586;28;20470;-85
2021/03/25 12:29:23;;;;;;;11.43;6.00;;;;;;;14.34;46.02;155044.41;5078477;28;20456;-86
2021/03/25 12:31:58;;;;;;;12.13;6.00;;;;;;;14.54;45.63;155096.31;5100753;27;20523;-85